Airfield :
LOGIN :

Register | Disclaimer

   EN    FR    IT 

 










Legend :    VFR   Marginal VFR   IFR   Intensive IFR   Very Intensive IFR
Visi :
Ceiling :
>= 8 km
>= 3000ft
5 to 8 km
1000 to 3000 ft
1500m to 5 km
500 to 1000 ft
800 to 1500m
200 to 500 ft
< 800m
< 200 ft
Symbols :   Thunderstorms  Fog  Heavy snow  Heavy precipitations  Wind > 20 kt
SIGMETs :     Misc.  Thunderstorms  Icing  Turbulence  Mountain Waves  Volcanic Ashes






- Airport Elevation : 162 ft
- IATA code : BOD


LFBD - Bordeaux / Merignac

CURRENT METAR :
  • 180700Z AUTO 00000KT 4100 0900 R23/P2300 R05/1400U R29/P2300 BCFG FEW014 SCT021 M02/M02 Q1030 TEMPO 0500 FG

EXPIRED METARs :
  • 180630Z AUTO 00000KT 6000 1200 R23/P2300 R05/P2300 R29/P2300 NSC M02/M02 Q1030 TEMPO 0500 FG
  • 180600Z AUTO 00000KT 6000 NSC M02/M02 Q1030 TEMPO 0500 FG
  • 180530Z AUTO 00000KT 7000 NSC M02/M02 Q1030 TEMPO 0500 FG
  • 180500Z AUTO 00000KT 2400 0600 R23/0700D R05/1100U R29/1300U BCFG FEW015 M01/M02 Q1030 TEMPO 0500 FG
  • 180430Z AUTO 00000KT 7000 0750 R23/1900U R05/0750D R29/P2300 BCFG FEW017 M02/M02 Q1030 TEMPO 0500 FG

TAF TAF LFBD
Valid from the 18 at 06:00 until the 19 at 12:00 UTC


180500Z 1806/1912 VRB02KT 7000 NSC TX08/1813Z TNM01/1906Z
TEMPO 1806/1809 3000 BR
PROB30
TEMPO 1806/1809 0500 FG
BECMG 1809/1811 11010KT CAVOK
BECMG 1819/1821 3000 BR
TEMPO 1821/1909 0800 FG VV///
BECMG 1910/1912 CAVOK
ATIS : +33 5 57 92 81 04



MET'MAP, your aeronautical weather chart ! - Copyright ORBIFLY December 2007 - Disclaimer

ORBIFLY MET'MAP TEAM :

Programming & Development : Alexandra Zaïnal
Concept & original design : Baudouin d'Aumeries
Assistance for programming : Marc-Olivier Méhu
Technical & hardware support : Manuel Goepfert

Contact : metmap@orbifly.com




SOURCES & CREDITS :

   NOAA